Time;durP1;ratioP1;P1;durP2;ratioP2;P2;SDS_P1;SDS_P2;PMS_P1;PMS_P2;Temp;Humidity;BMP_temperature;BMP_pressure;BME280_temperature;BME280_humidity;BME280_pressure;Samples;Min_cycle;Max_cycle;Signal;HPM_P1;HPM_P2
2022/07/09 00:00:07;;;;;;;0.30;0.30;;;;;;;27.66;33.87;99889.88;5098727;28;20982;-72
2022/07/09 00:02:34;;;;;;;0.47;0.30;;;;;;;27.67;33.74;99885.88;5094684;28;20043;-72
2022/07/09 00:05:00;;;;;;;0.30;0.30;;;;;;;27.66;33.64;99885.06;5093993;28;20090;-72
2022/07/09 00:07:26;;;;;;;0.50;0.40;;;;;;;27.64;33.82;99895.09;5092632;28;20566;-72
2022/07/09 00:09:52;;;;;;;0.20;0.20;;;;;;;27.63;33.69;99901.94;5096211;28;20056;-72
2022/07/09 00:12:17;;;;;;;0.32;0.32;;;;;;;27.64;33.77;99904.31;5087270;28;20468;-72
2022/07/09 00:14:42;;;;;;;0.45;0.30;;;;;;;27.64;33.94;99898.72;5099984;28;20048;-72
2022/07/09 00:17:08;;;;;;;0.40;0.30;;;;;;;27.64;33.92;99903.53;5100348;28;20408;-72
2022/07/09 00:19:33;;;;;;;0.30;0.30;;;;;;;27.62;33.91;99903.16;5096692;28;20112;-72
2022/07/09 00:21:58;;;;;;;0.20;0.20;;;;;;;27.60;34.10;99906.38;5091776;28;20052;-72
2022/07/09 00:24:24;;;;;;;0.40;0.35;;;;;;;27.64;34.10;99911.97;5093012;28;20039;-72
2022/07/09 00:26:49;;;;;;;0.30;0.30;;;;;;;27.63;34.06;99902.72;5083708;28;20255;-71
2022/07/09 00:29:15;;;;;;;0.35;0.30;;;;;;;27.62;34.10;99911.56;5092711;28;20094;-72
2022/07/09 00:31:40;;;;;;;0.35;0.32;;;;;;;27.62;33.89;99903.16;5084284;28;20408;-72
2022/07/09 00:34:06;;;;;;;0.50;0.40;;;;;;;27.61;34.08;99907.97;5098853;28;20392;-72
2022/07/09 00:36:31;;;;;;;0.30;0.30;;;;;;;27.63;34.23;99910.38;5084504;28;20044;-72
2022/07/09 00:38:57;;;;;;;0.50;0.40;;;;;;;27.59;34.25;99907.59;5097977;28;20036;-72
2022/07/09 00:41:22;;;;;;;0.40;0.35;;;;;;;27.60;34.25;99902.75;5088773;28;20253;-72
2022/07/09 00:43:49;;;;;;;0.38;0.38;;;;;;;27.60;34.42;99914.00;5090541;28;20069;-71
2022/07/09 00:46:16;;;;;;;0.38;0.30;;;;;;;27.59;34.39;99906.78;5091067;28;20093;-72
2022/07/09 00:48:41;;;;;;;0.40;0.40;;;;;;;27.60;34.47;99905.56;5092652;28;20405;-66
2022/07/09 00:51:07;;;;;;;0.40;0.30;;;;;;;27.59;34.50;99904.78;5085093;28;20060;-68
2022/07/09 00:53:33;;;;;;;0.40;0.30;;;;;;;27.57;34.66;99906.38;5090331;28;20048;-72
2022/07/09 00:56:00;;;;;;;0.50;0.40;;;;;;;27.55;34.63;99906.78;5090766;28;20048;-72
2022/07/09 00:58:27;;;;;;;0.35;0.35;;;;;;;27.56;34.68;99907.59;5084474;28;20052;-71
2022/07/09 01:00:54;;;;;;;0.38;0.32;;;;;;;27.56;34.66;99907.59;5087882;28;20048;-72
2022/07/09 01:03:19;;;;;;;0.40;0.40;;;;;;;27.54;34.80;99905.19;5092626;28;20087;-72
2022/07/09 01:05:45;;;;;;;0.50;0.40;;;;;;;27.55;34.81;99906.00;5092460;28;20064;-72
2022/07/09 01:08:11;;;;;;;0.50;0.40;;;;;;;27.54;34.85;99898.78;5106315;28;20091;-68
2022/07/09 01:10:36;;;;;;;0.50;0.40;;;;;;;27.53;34.91;99897.97;5079881;28;20032;-68
2022/07/09 01:13:03;;;;;;;0.30;0.30;;;;;;;27.54;34.85;99895.97;5086079;28;20047;-69
2022/07/09 01:15:29;;;;;;;0.38;0.32;;;;;;;27.55;34.97;99900.38;5086103;28;20560;-68
2022/07/09 01:17:57;;;;;;;0.40;0.40;;;;;;;27.52;35.09;99895.59;5088834;28;20056;-68
2022/07/09 01:20:23;;;;;;;0.40;0.30;;;;;;;27.56;35.00;99899.16;5091106;28;20257;-68
2022/07/09 01:22:49;;;;;;;0.45;0.38;;;;;;;27.55;34.96;99897.56;5100413;28;20086;-68
2022/07/09 01:25:17;;;;;;;0.43;0.40;;;;;;;27.55;35.20;99901.19;5091421;28;20071;-68
2022/07/09 01:27:43;;;;;;;0.45;0.40;;;;;;;27.53;35.16;99891.56;5075701;28;20055;-68
2022/07/09 01:30:09;;;;;;;0.52;0.40;;;;;;;27.53;35.09;99895.16;5086499;28;20051;-68
2022/07/09 01:32:34;;;;;;;0.55;0.40;;;;;;;27.52;34.97;99899.19;5093413;28;20075;-72
2022/07/09 01:35:00;;;;;;;0.30;0.30;;;;;;;27.56;35.12;99901.97;5089145;28;20511;-72
2022/07/09 01:37:25;;;;;;;0.45;0.30;;;;;;;27.53;35.25;99897.19;5089254;28;20102;-72
2022/07/09 01:39:53;;;;;;;0.40;0.40;;;;;;;27.54;35.01;99898.78;5087079;28;20083;-68
2022/07/09 01:42:20;;;;;;;0.43;0.30;;;;;;;27.51;35.12;99906.03;5084781;28;20043;-72
2022/07/09 01:44:46;;;;;;;0.40;0.30;;;;;;;27.52;35.14;99899.19;5088592;28;20122;-72
2022/07/09 01:47:14;;;;;;;0.70;0.40;;;;;;;27.51;35.44;99899.59;5089952;28;20507;-68
2022/07/09 01:49:40;;;;;;;0.75;0.40;;;;;;;27.52;35.00;99902.00;5099477;28;20052;-72
2022/07/09 01:52:06;;;;;;;0.35;0.30;;;;;;;27.48;35.40;99901.22;5097809;28;20381;-72
2022/07/09 01:54:31;;;;;;;0.38;0.30;;;;;;;27.49;35.25;99914.03;5089327;28;20075;-72
2022/07/09 01:56:57;;;;;;;0.47;0.40;;;;;;;27.51;35.22;99906.03;5087401;28;20044;-72
2022/07/09 01:59:22;;;;;;;0.50;0.40;;;;;;;27.47;35.34;99905.22;5095420;28;20043;-72
2022/07/09 02:01:48;;;;;;;0.45;0.38;;;;;;;27.48;35.46;99906.84;5086818;28;20128;-72
2022/07/09 02:04:16;;;;;;;0.30;0.30;;;;;;;27.49;35.29;99899.19;5095250;28;20407;-72
2022/07/09 02:06:41;;;;;;;0.47;0.30;;;;;;;27.48;35.26;99898.41;5086767;28;20506;-68
2022/07/09 02:09:07;;;;;;;0.47;0.30;;;;;;;27.49;35.55;99896.38;5091257;28;20554;-68
2022/07/09 02:11:32;;;;;;;0.68;0.40;;;;;;;27.47;35.42;99902.41;5075344;28;20048;-68
2022/07/09 02:13:58;;;;;;;0.73;0.40;;;;;;;27.47;35.41;99896.00;5088383;28;20554;-68
2022/07/09 02:16:24;;;;;;;0.52;0.30;;;;;;;27.49;35.42;99899.19;5107241;28;20040;-72
2022/07/09 02:18:50;;;;;;;0.30;0.30;;;;;;;27.47;35.28;99904.44;5092139;28;20526;-72
2022/07/09 02:21:16;;;;;;;0.30;0.30;;;;;;;27.46;35.50;99894.41;5082492;28;20169;-72
2022/07/09 02:23:41;;;;;;;0.60;0.35;;;;;;;27.44;35.48;99900.44;5086720;28;20120;-72
2022/07/09 02:26:06;;;;;;;0.38;0.35;;;;;;;27.46;35.31;99902.84;5100549;28;20043;-72
2022/07/09 02:28:32;;;;;;;0.20;0.20;;;;;;;27.46;35.43;99892.41;5096758;28;20044;-72
2022/07/09 02:30:57;;;;;;;0.38;0.30;;;;;;;27.44;35.32;99894.81;5087230;28;20093;-72
2022/07/09 02:33:23;;;;;;;0.40;0.40;;;;;;;27.47;35.33;99901.63;5083658;28;20419;-72
2022/07/09 02:35:48;;;;;;;0.52;0.40;;;;;;;27.42;35.57;99895.22;5088428;28;20084;-72
2022/07/09 02:38:14;;;;;;;0.50;0.40;;;;;;;27.43;35.44;99902.47;5086949;28;20417;-72
2022/07/09 02:40:39;;;;;;;0.40;0.30;;;;;;;27.41;35.65;99892.81;5093467;28;20093;-72
2022/07/09 02:43:05;;;;;;;0.40;0.40;;;;;;;27.42;35.64;99898.03;5102862;28;20058;-72
2022/07/09 02:45:30;;;;;;;0.60;0.40;;;;;;;27.44;35.73;99897.63;5097518;28;20042;-72
2022/07/09 02:47:56;;;;;;;0.45;0.40;;;;;;;27.41;35.81;99895.63;5083040;28;20044;-72
2022/07/09 02:50:21;;;;;;;0.35;0.30;;;;;;;27.39;35.56;99898.06;5101651;28;20040;-72
2022/07/09 02:52:46;;;;;;;0.50;0.40;;;;;;;27.42;35.46;99902.84;5096006;28;20075;-69
2022/07/09 02:55:12;;;;;;;0.93;0.40;;;;;;;27.39;35.51;99904.47;5081037;28;20392;-68
2022/07/09 02:57:37;;;;;;;0.40;0.40;;;;;;;27.39;35.54;99910.09;5092890;28;20515;-68
2022/07/09 03:00:04;;;;;;;0.40;0.38;;;;;;;27.40;35.84;99908.88;5092063;28;20048;-68
2022/07/09 03:02:29;;;;;;;0.30;0.30;;;;;;;27.36;35.58;99901.66;5088785;28;20051;-68
2022/07/09 03:04:54;;;;;;;0.40;0.30;;;;;;;27.38;35.55;99913.31;5093665;28;20044;-68
2022/07/09 03:07:20;;;;;;;0.52;0.30;;;;;;;27.35;35.31;99906.47;5098793;28;20134;-72
2022/07/09 03:09:45;;;;;;;0.57;0.40;;;;;;;27.36;35.51;99913.72;5087904;28;20044;-72
2022/07/09 03:12:11;;;;;;;0.55;0.32;;;;;;;27.38;35.14;99916.13;5093776;28;20042;-72
2022/07/09 03:14:36;;;;;;;0.38;0.30;;;;;;;27.36;35.26;99921.31;5099722;28;20599;-72
2022/07/09 03:17:01;;;;;;;0.50;0.30;;;;;;;27.38;35.46;99919.72;5094997;28;20048;-72
2022/07/09 03:19:27;;;;;;;0.40;0.40;;;;;;;27.36;35.39;99915.69;5104970;28;20047;-68
2022/07/09 03:21:52;;;;;;;0.82;0.40;;;;;;;27.32;35.23;99915.72;5103291;28;20036;-68
2022/07/09 03:24:18;;;;;;;0.50;0.30;;;;;;;27.37;35.28;99915.31;5089168;28;20572;-68
2022/07/09 03:26:43;;;;;;;0.57;0.40;;;;;;;27.34;35.32;99912.50;5101004;28;20043;-68
2022/07/09 03:29:09;;;;;;;0.40;0.30;;;;;;;27.33;35.34;99913.72;5094503;28;20078;-68
2022/07/09 03:31:34;;;;;;;0.40;0.38;;;;;;;27.31;35.18;99908.53;5091623;28;20036;-68
2022/07/09 03:34:00;;;;;;;0.50;0.40;;;;;;;27.30;35.29;99912.53;5087965;28;20416;-68
2022/07/09 03:36:25;;;;;;;0.50;0.40;;;;;;;27.31;35.49;99910.53;5089129;28;20394;-68
2022/07/09 03:38:51;;;;;;;0.47;0.38;;;;;;;27.32;35.27;99912.13;5095927;28;20051;-68
2022/07/09 03:41:16;;;;;;;0.55;0.40;;;;;;;27.33;35.38;99914.53;5086419;28;20033;-68
2022/07/09 03:43:41;;;;;;;0.50;0.40;;;;;;;27.31;35.36;99913.34;5097045;28;20047;-68
2022/07/09 03:46:07;;;;;;;0.43;0.40;;;;;;;27.32;35.26;99912.13;5092796;28;20069;-68
2022/07/09 03:48:33;;;;;;;0.45;0.30;;;;;;;27.33;35.65;99920.13;5088512;28;20423;-68
2022/07/09 03:50:58;;;;;;;0.40;0.30;;;;;;;27.33;35.23;99917.34;5084408;28;20064;-68
2022/07/09 03:53:25;;;;;;;0.40;0.35;;;;;;;27.29;35.19;99916.56;5099533;28;20039;-68
2022/07/09 03:55:50;;;;;;;0.30;0.30;;;;;;;27.29;35.35;99924.16;5103291;28;20134;-68
2022/07/09 03:58:16;;;;;;;0.32;0.32;;;;;;;27.30;35.33;99923.78;5091785;28;20048;-68
2022/07/09 04:00:41;;;;;;;0.40;0.40;;;;;;;27.29;35.21;99915.72;5093158;28;20042;-68
2022/07/09 04:03:06;;;;;;;0.47;0.47;;;;;;;27.31;35.29;99916.94;5097886;28;20051;-68
2022/07/09 04:05:32;;;;;;;0.32;0.30;;;;;;;27.29;35.30;99927.78;5092406;28;20075;-68
2022/07/09 04:07:57;;;;;;;0.40;0.40;;;;;;;27.30;35.49;99922.97;5100798;28;20063;-68
2022/07/09 04:10:23;;;;;;;0.65;0.40;;;;;;;27.30;35.35;99935.00;5098552;28;20044;-68
2022/07/09 04:12:48;;;;;;;0.20;0.20;;;;;;;27.27;35.30;99926.59;5096479;28;20496;-68
2022/07/09 04:15:14;;;;;;;0.45;0.30;;;;;;;27.29;35.22;99939.03;5083984;28;20039;-68
2022/07/09 04:17:39;;;;;;;0.30;0.30;;;;;;;27.27;35.21;99947.03;5101838;28;20579;-68
2022/07/09 04:20:05;;;;;;;0.30;0.30;;;;;;;27.27;35.44;99938.63;5084259;28;20097;-68
2022/07/09 04:22:30;;;;;;;0.52;0.38;;;;;;;27.30;35.33;99949.06;5089391;28;20542;-68
2022/07/09 04:24:56;;;;;;;0.47;0.30;;;;;;;27.30;35.34;99951.06;5095691;28;20083;-68
2022/07/09 04:27:21;;;;;;;0.38;0.30;;;;;;;27.29;35.36;99949.44;5097006;28;20032;-68
2022/07/09 04:29:47;;;;;;;0.95;0.50;;;;;;;27.28;35.44;99948.63;5107871;28;20040;-71
2022/07/09 04:32:12;;;;;;;0.32;0.30;;;;;;;27.29;35.42;99950.28;5096814;28;20415;-72
2022/07/09 04:34:38;;;;;;;0.57;0.32;;;;;;;27.30;35.29;99953.88;5098089;28;20036;-72
2022/07/09 04:37:04;;;;;;;0.45;0.40;;;;;;;27.29;35.55;99964.31;5069458;28;20040;-72
2022/07/09 04:39:30;;;;;;;0.38;0.35;;;;;;;27.27;35.56;99958.28;5087063;28;20665;-72
2022/07/09 04:41:55;;;;;;;0.68;0.55;;;;;;;27.29;35.77;99961.50;5096562;28;20142;-72
2022/07/09 04:44:21;;;;;;;0.60;0.50;;;;;;;27.27;35.54;99960.28;5096726;28;20051;-72
2022/07/09 04:46:46;;;;;;;0.43;0.40;;;;;;;27.28;35.76;99959.06;5106393;28;20101;-72
2022/07/09 04:49:12;;;;;;;0.50;0.45;;;;;;;27.27;35.56;99969.50;5096348;28;20453;-72
2022/07/09 04:51:37;;;;;;;0.93;0.68;;;;;;;27.24;35.97;99959.09;5100457;28;20130;-72
2022/07/09 04:54:02;;;;;;;0.45;0.43;;;;;;;27.28;35.76;99957.06;5099071;28;20036;-72
2022/07/09 04:56:28;;;;;;;1.02;0.70;;;;;;;27.28;35.92;99959.06;5092819;28;20453;-72
2022/07/09 04:58:53;;;;;;;1.25;0.70;;;;;;;27.29;35.96;99961.50;5094251;28;20044;-72
2022/07/09 05:01:23;;;;;;;0.73;0.60;;;;;;;27.30;35.79;99954.69;5095718;28;20044;-71
2022/07/09 05:03:49;;;;;;;1.00;0.70;;;;;;;27.29;35.98;99955.88;5094331;28;20031;-68
2022/07/09 05:06:18;;;;;;;1.08;0.73;;;;;;;27.31;36.06;99970.31;5096192;28;20046;-68
2022/07/09 05:08:44;;;;;;;0.93;0.60;;;;;;;27.27;36.16;99952.66;5097104;28;20561;-68
2022/07/09 05:11:10;;;;;;;0.95;0.60;;;;;;;27.29;36.20;99958.69;5096313;28;20043;-72
2022/07/09 05:13:37;;;;;;;0.93;0.70;;;;;;;27.29;36.36;99950.28;5101854;28;20040;-72
2022/07/09 05:16:04;;;;;;;0.75;0.50;;;;;;;27.30;36.19;99951.06;5105987;28;20048;-72
2022/07/09 05:18:30;;;;;;;0.95;0.60;;;;;;;27.34;36.21;99949.03;5097610;28;20235;-72
2022/07/09 05:20:56;;;;;;;0.98;0.60;;;;;;;27.31;36.21;99950.66;5100540;28;20040;-72
2022/07/09 05:23:22;;;;;;;0.90;0.57;;;;;;;27.30;36.25;99954.69;5084917;28;20028;-72
2022/07/09 05:25:47;;;;;;;0.90;0.60;;;;;;;27.32;36.54;99952.25;5098020;28;20050;-72
2022/07/09 05:28:12;;;;;;;0.73;0.52;;;;;;;27.31;36.26;99953.47;5092199;28;20044;-72
2022/07/09 05:30:38;;;;;;;0.77;0.60;;;;;;;27.34;36.46;99958.25;5084356;28;20040;-72
2022/07/09 05:33:05;;;;;;;0.88;0.60;;;;;;;27.36;36.39;99957.84;5090154;28;20050;-72
2022/07/09 05:35:30;;;;;;;1.35;0.80;;;;;;;27.36;36.34;99953.06;5084317;28;20040;-72
2022/07/09 05:37:55;;;;;;;0.95;0.60;;;;;;;27.36;36.27;99950.25;5089898;28;20051;-72
2022/07/09 05:40:21;;;;;;;1.50;0.73;;;;;;;27.37;36.23;99962.28;5099263;28;20040;-72
2022/07/09 05:42:46;;;;;;;0.93;0.55;;;;;;;27.37;36.24;99951.84;5087083;28;20521;-72
2022/07/09 05:45:12;;;;;;;1.10;0.70;;;;;;;27.34;36.29;99957.47;5099294;28;20113;-72
2022/07/09 05:47:38;;;;;;;0.90;0.60;;;;;;;27.36;36.32;99947.44;5099180;28;20047;-72
2022/07/09 05:50:04;;;;;;;0.88;0.60;;;;;;;27.37;36.23;99957.47;5093572;28;20036;-72
2022/07/09 05:52:29;;;;;;;0.47;0.40;;;;;;;27.39;36.07;99952.22;5101314;28;20095;-72
2022/07/09 05:54:55;;;;;;;0.75;0.50;;;;;;;27.38;36.09;99945.00;5098959;28;20032;-72
2022/07/09 05:57:20;;;;;;;1.05;0.60;;;;;;;27.38;36.09;99947.81;5083924;28;20047;-72
2022/07/09 05:59:45;;;;;;;0.77;0.50;;;;;;;27.38;36.10;99958.25;5089164;28;20044;-72
2022/07/09 06:02:11;;;;;;;0.73;0.55;;;;;;;27.45;36.99;99957.44;5098960;28;20040;-72
2022/07/09 06:04:36;;;;;;;0.45;0.40;;;;;;;27.48;37.42;99948.19;5087034;28;20131;-72
2022/07/09 06:07:02;;;;;;;0.60;0.40;;;;;;;27.45;37.68;99951.81;5087803;28;20508;-72
2022/07/09 06:09:27;;;;;;;0.50;0.50;;;;;;;27.39;37.75;99945.81;5096133;28;20122;-72
2022/07/09 06:11:53;;;;;;;1.67;0.50;;;;;;;27.33;37.84;99951.03;5090578;28;20047;-72
2022/07/09 06:14:19;;;;;;;1.05;0.60;;;;;;;27.29;38.23;99953.09;5087040;28;20535;-72
2022/07/09 06:16:46;;;;;;;0.80;0.57;;;;;;;27.29;38.31;99955.06;5086749;28;20039;-72
2022/07/09 06:19:15;;;;;;;0.98;0.65;;;;;;;27.28;38.31;99956.28;5089224;28;20058;-72
2022/07/09 06:21:41;;;;;;;0.73;0.50;;;;;;;27.24;38.13;99950.69;5083713;28;20073;-72
2022/07/09 06:24:07;;;;;;;0.65;0.47;;;;;;;27.27;37.96;99958.28;5083514;28;20036;-72
2022/07/09 06:26:33;;;;;;;0.50;0.50;;;;;;;27.26;38.11;99953.06;5097296;28;20081;-72
2022/07/09 06:28:59;;;;;;;0.90;0.60;;;;;;;27.29;38.21;99955.88;5092763;28;20063;-72
2022/07/09 06:31:25;;;;;;;0.70;0.50;;;;;;;27.33;37.66;99950.25;5103259;28;20124;-72
2022/07/09 06:33:50;;;;;;;0.85;0.55;;;;;;;27.34;37.68;99958.25;5087751;28;20040;-72
2022/07/09 06:36:16;;;;;;;0.43;0.40;;;;;;;27.39;37.82;99959.84;5064059;28;20111;-72
2022/07/09 06:41:25;;;;;;;0.85;0.43;;;;;;;27.36;37.65;99964.28;5098553;28;20054;-72
2022/07/09 06:43:50;;;;;;;0.70;0.60;;;;;;;27.31;37.55;99958.28;5103705;28;20059;-72
2022/07/09 06:46:16;;;;;;;0.85;0.50;;;;;;;27.29;37.31;99958.69;5096713;28;20040;-72
2022/07/09 06:48:41;;;;;;;0.38;0.38;;;;;;;27.27;37.38;99958.28;5081503;28;20372;-71
2022/07/09 06:51:06;;;;;;;0.60;0.47;;;;;;;27.30;37.25;99953.88;5091516;28;20235;-72
2022/07/09 06:53:32;;;;;;;0.45;0.45;;;;;;;27.31;37.48;99950.66;5092296;28;20040;-72
2022/07/09 06:55:57;;;;;;;0.60;0.50;;;;;;;27.30;37.45;99946.25;5088612;28;20040;-72
2022/07/09 06:58:22;;;;;;;0.73;0.60;;;;;;;27.31;37.22;99938.63;5073197;28;20385;-72
2022/07/09 07:00:48;;;;;;;0.47;0.40;;;;;;;27.34;37.31;99938.59;5086400;28;20443;-68
2022/07/09 07:03:15;;;;;;;0.65;0.50;;;;;;;27.37;37.07;99946.22;5085449;28;20047;-68
2022/07/09 07:05:40;;;;;;;0.82;0.52;;;;;;;27.37;37.06;99939.81;5090222;28;20040;-68
2022/07/09 07:08:05;;;;;;;0.57;0.47;;;;;;;27.34;37.17;99932.97;5072756;28;20101;-68
2022/07/09 07:10:31;;;;;;;0.65;0.55;;;;;;;27.37;36.97;99937.78;5100374;28;20127;-68
2022/07/09 07:12:56;;;;;;;0.50;0.40;;;;;;;27.39;37.11;99937.38;5096062;28;20055;-68
2022/07/09 07:15:22;;;;;;;0.60;0.30;;;;;;;27.37;36.99;99929.38;5085682;28;20044;-68
2022/07/09 07:17:48;;;;;;;0.55;0.40;;;;;;;27.38;36.74;99921.75;5093969;28;20085;-68
2022/07/09 07:20:14;;;;;;;0.63;0.40;;;;;;;27.41;36.72;99929.34;5080631;28;20085;-68
2022/07/09 07:22:39;;;;;;;0.68;0.50;;;;;;;27.44;36.68;99917.31;5095062;28;20043;-72
2022/07/09 07:25:05;;;;;;;0.47;0.30;;;;;;;27.39;36.76;99924.13;5086525;28;20036;-72
2022/07/09 07:27:31;;;;;;;0.60;0.40;;;;;;;27.38;36.73;99919.72;5087925;28;20032;-72
2022/07/09 07:29:56;;;;;;;0.47;0.43;;;;;;;27.34;36.57;99918.13;5095470;28;20071;-72
2022/07/09 07:32:22;;;;;;;0.60;0.40;;;;;;;27.34;36.76;99913.31;5100827;28;20543;-72
2022/07/09 07:34:47;;;;;;;0.40;0.40;;;;;;;27.36;36.64;99922.16;5089640;28;20043;-72
2022/07/09 07:37:12;;;;;;;0.57;0.38;;;;;;;27.36;36.77;99910.91;5100370;28;20078;-68
2022/07/09 07:39:38;;;;;;;0.80;0.55;;;;;;;27.41;36.58;99921.72;5092891;28;20032;-68
2022/07/09 07:42:05;;;;;;;0.60;0.55;;;;;;;27.45;36.57;99918.09;5094151;28;20032;-68
2022/07/09 07:44:30;;;;;;;1.13;0.57;;;;;;;27.48;36.51;99914.47;5101667;28;20039;-68
2022/07/09 07:46:56;;;;;;;0.60;0.50;;;;;;;27.44;36.69;99922.91;5096499;28;20655;-68
2022/07/09 07:49:21;;;;;;;0.32;0.32;;;;;;;27.45;36.48;99918.91;5079941;28;20055;-68
2022/07/09 07:51:47;;;;;;;0.55;0.50;;;;;;;27.47;36.59;99910.06;5104537;28;20141;-68
2022/07/09 07:54:12;;;;;;;0.52;0.43;;;;;;;27.45;36.38;99906.88;5101108;28;20039;-68
2022/07/09 07:56:39;;;;;;;0.68;0.40;;;;;;;27.41;36.67;99907.66;5091956;28;20048;-68
2022/07/09 07:59:05;;;;;;;0.50;0.40;;;;;;;27.41;36.40;99896.41;5090775;28;20043;-68
2022/07/09 08:01:30;;;;;;;0.70;0.47;;;;;;;27.45;36.67;99904.84;5100326;28;20031;-69
2022/07/09 08:03:55;;;;;;;0.68;0.43;;;;;;;27.44;36.47;99900.44;5097104;28;20052;-68
2022/07/09 08:06:23;;;;;;;1.02;0.60;;;;;;;27.46;36.41;99898.00;5090067;28;20442;-68
2022/07/09 08:08:49;;;;;;;0.55;0.38;;;;;;;27.46;36.51;99894.41;5104566;28;20530;-68
2022/07/09 08:11:14;;;;;;;0.45;0.38;;;;;;;27.47;36.56;99893.19;5089996;28;20076;-68
2022/07/09 08:13:40;;;;;;;0.63;0.52;;;;;;;27.48;36.43;99889.97;5092580;28;20686;-68
2022/07/09 08:16:06;;;;;;;0.60;0.50;;;;;;;27.48;36.36;99889.16;5101186;28;20054;-68
2022/07/09 08:18:31;;;;;;;0.50;0.35;;;;;;;27.47;36.34;99887.56;5088649;28;20052;-68
2022/07/09 08:20:57;;;;;;;0.77;0.40;;;;;;;27.45;36.41;99885.19;5093373;28;20040;-68
2022/07/09 08:23:22;;;;;;;0.57;0.40;;;;;;;27.50;36.35;99881.91;5094963;28;20503;-68
2022/07/09 08:25:49;;;;;;;0.85;0.50;;;;;;;27.50;36.61;99881.13;5107156;28;20131;-68
2022/07/09 08:28:15;;;;;;;0.88;0.50;;;;;;;27.46;36.51;99878.34;5095937;28;20392;-68
2022/07/09 08:30:40;;;;;;;0.52;0.40;;;;;;;27.47;36.54;99876.34;5087682;28;20518;-68
2022/07/09 08:33:05;;;;;;;0.30;0.30;;;;;;;27.47;36.50;99879.94;5092629;28;20047;-68
2022/07/09 08:35:31;;;;;;;0.55;0.50;;;;;;;27.46;36.65;99875.53;5092488;28;20047;-68
2022/07/09 08:37:56;;;;;;;0.45;0.40;;;;;;;27.48;36.57;99866.69;5091155;28;20134;-69
2022/07/09 08:40:25;;;;;;;0.68;0.50;;;;;;;27.48;36.63;99866.69;5099937;28;20159;-68
2022/07/09 08:42:50;;;;;;;0.40;0.32;;;;;;;27.49;36.75;99857.84;5086966;28;20064;-68
2022/07/09 08:45:17;;;;;;;0.50;0.40;;;;;;;27.50;36.62;99856.63;5096710;28;20051;-68
2022/07/09 08:47:42;;;;;;;0.80;0.55;;;;;;;27.53;36.65;99858.63;5100204;28;20736;-68
2022/07/09 08:50:08;;;;;;;0.50;0.50;;;;;;;27.53;36.48;99855.84;5091669;28;20032;-68
2022/07/09 08:52:35;;;;;;;0.88;0.50;;;;;;;27.54;36.50;99859.44;5095994;28;20040;-68
2022/07/09 08:55:01;;;;;;;0.70;0.50;;;;;;;27.52;36.54;99847.81;5080474;28;20044;-68
2022/07/09 08:57:27;;;;;;;0.40;0.40;;;;;;;27.50;36.57;99842.59;5091149;28;20040;-68
2022/07/09 08:59:52;;;;;;;0.57;0.45;;;;;;;27.53;36.45;99855.03;5090814;28;20036;-68
2022/07/09 09:02:20;;;;;;;0.63;0.50;;;;;;;27.53;36.61;99852.22;5083305;28;20036;-68
2022/07/09 09:04:45;;;;;;;0.40;0.40;;;;;;;27.56;36.39;99845.78;5100418;28;20046;-68
2022/07/09 09:07:18;;;;;;;0.73;0.40;;;;;;;27.53;36.39;99846.59;5081969;28;20043;-68
2022/07/09 09:09:44;;;;;;;0.55;0.40;;;;;;;27.55;36.60;99844.97;5094822;28;20043;-68
2022/07/09 09:12:12;;;;;;;0.40;0.40;;;;;;;27.53;36.49;99843.78;5086038;28;20040;-72
2022/07/09 09:14:37;;;;;;;0.57;0.38;;;;;;;27.55;36.46;99833.72;5091645;28;20083;-72
2022/07/09 09:17:11;;;;;;;0.73;0.60;;;;;;;27.54;36.42;99836.97;5100523;28;20502;-72
2022/07/09 09:19:38;;;;;;;0.38;0.32;;;;;;;27.55;36.43;99828.13;5089514;28;20028;-72
2022/07/09 09:22:04;;;;;;;0.55;0.40;;;;;;;27.55;36.51;99832.94;5093506;28;20043;-72
2022/07/09 09:24:29;;;;;;;0.40;0.40;;;;;;;27.59;36.52;99834.53;5090080;28;20175;-72
2022/07/09 09:26:59;;;;;;;0.52;0.40;;;;;;;27.59;36.36;99826.09;5086725;28;20053;-68
2022/07/09 09:29:26;;;;;;;0.30;0.30;;;;;;;27.60;36.29;99822.06;5087960;28;20051;-68
2022/07/09 09:31:52;;;;;;;0.50;0.35;;;;;;;27.59;36.27;99822.47;5088411;28;20044;-68
2022/07/09 09:34:19;;;;;;;0.68;0.50;;;;;;;27.60;36.21;99822.06;5095519;28;20104;-68
2022/07/09 09:36:51;;;;;;;0.50;0.50;;;;;;;27.62;36.36;99816.81;5098834;28;20040;-68
2022/07/09 09:39:21;;;;;;;0.50;0.50;;;;;;;27.64;36.00;99814.41;5092179;28;20476;-68
2022/07/09 09:41:53;;;;;;;0.50;0.40;;;;;;;27.61;36.12;99809.59;5102316;28;20496;-68
2022/07/09 09:44:30;;;;;;;0.83;0.57;;;;;;;27.60;36.01;99810.81;5099719;28;20050;-68
2022/07/09 09:46:57;;;;;;;0.77;0.50;;;;;;;27.64;36.10;99805.16;5105661;28;20143;-68
2022/07/09 09:49:24;;;;;;;0.50;0.47;;;;;;;27.63;36.21;99797.94;5095958;28;20040;-68
2022/07/09 09:51:56;;;;;;;0.75;0.45;;;;;;;27.66;36.03;99799.94;5101144;28;20040;-68
2022/07/09 09:54:22;;;;;;;0.75;0.50;;;;;;;27.69;35.97;99799.16;5092982;28;20044;-68
2022/07/09 09:56:50;;;;;;;0.70;0.60;;;;;;;27.67;35.75;99795.94;5100421;28;20040;-68
2022/07/09 09:59:16;;;;;;;0.50;0.40;;;;;;;27.69;35.99;99790.72;5091329;28;20036;-68
2022/07/09 10:01:42;;;;;;;0.50;0.45;;;;;;;27.72;35.77;99791.88;5086558;28;20486;-68
2022/07/09 10:04:09;;;;;;;0.70;0.50;;;;;;;27.70;35.98;99786.69;5087438;28;20051;-68
2022/07/09 10:06:36;;;;;;;0.88;0.47;;;;;;;27.73;35.87;99785.88;5096294;28;20067;-68
2022/07/09 10:09:03;;;;;;;0.57;0.40;;;;;;;27.75;35.67;99786.25;5098065;28;20077;-68
2022/07/09 10:11:45;;;;;;;0.70;0.40;;;;;;;27.75;35.63;99779.84;5096477;28;20059;-68
2022/07/09 10:14:32;;;;;;;0.80;0.50;;;;;;;27.75;35.79;99782.66;5100456;28;20067;-68
2022/07/09 10:17:13;;;;;;;0.70;0.50;;;;;;;27.74;35.73;99778.25;5088489;28;20924;-68
2022/07/09 10:19:50;;;;;;;0.68;0.50;;;;;;;27.74;35.74;99781.06;5090640;28;20507;-68
2022/07/09 10:22:15;;;;;;;0.60;0.40;;;;;;;27.75;35.58;99772.19;5087469;28;20052;-68
2022/07/09 10:24:46;;;;;;;0.50;0.40;;;;;;;27.75;35.78;99768.59;5083717;28;20075;-68
2022/07/09 10:27:12;;;;;;;1.02;0.63;;;;;;;27.77;35.70;99761.34;5087212;28;20502;-68
2022/07/09 10:29:50;;;;;;;0.60;0.50;;;;;;;27.75;35.62;99763.75;5088599;28;20040;-68
2022/07/09 10:32:29;;;;;;;1.27;0.45;;;;;;;27.76;35.77;99765.34;5087375;28;20062;-68
2022/07/09 10:35:05;;;;;;;0.57;0.40;;;;;;;27.74;35.72;99753.75;5098739;28;20051;-68
2022/07/09 10:37:43;;;;;;;0.30;0.30;;;;;;;27.76;35.77;99754.13;5099546;28;20043;-69
2022/07/09 10:40:17;;;;;;;0.50;0.40;;;;;;;27.75;35.72;99758.16;5092859;28;20036;-68
2022/07/09 10:42:44;;;;;;;0.47;0.30;;;;;;;27.75;35.59;99752.53;5088778;28;20040;-68
2022/07/09 10:45:23;;;;;;;0.55;0.47;;;;;;;27.77;35.70;99744.47;5090769;28;20047;-68
2022/07/09 10:47:59;;;;;;;0.47;0.40;;;;;;;27.78;35.80;99734.00;5090902;28;20064;-68
2022/07/09 10:50:27;;;;;;;0.45;0.40;;;;;;;27.80;35.87;99732.41;5089866;28;20047;-68
2022/07/09 10:52:53;;;;;;;0.98;0.50;;;;;;;27.79;35.91;99735.63;5079877;28;20058;-68
2022/07/09 10:55:25;;;;;;;0.55;0.40;;;;;;;27.79;35.85;99732.81;5103374;28;20138;-68
2022/07/09 10:57:51;;;;;;;0.77;0.40;;;;;;;27.78;35.77;99722.78;5090902;28;20044;-68
2022/07/09 11:00:18;;;;;;;0.55;0.50;;;;;;;27.76;35.93;99714.75;5088763;28;20047;-68
2022/07/09 11:02:58;;;;;;;0.65;0.47;;;;;;;27.78;36.07;99709.53;5101618;28;20419;-68
2022/07/09 11:05:25;;;;;;;0.35;0.30;;;;;;;27.80;36.03;99706.31;5091056;28;20047;-68
2022/07/09 11:08:07;;;;;;;0.63;0.50;;;;;;;27.81;36.02;99699.47;5089350;28;20106;-68
2022/07/09 11:10:37;;;;;;;0.77;0.40;;;;;;;27.82;36.11;99695.44;5094610;28;20036;-68
2022/07/09 11:13:06;;;;;;;0.40;0.40;;;;;;;27.83;36.10;99683.78;5094950;28;20088;-68
2022/07/09 11:15:34;;;;;;;0.82;0.60;;;;;;;27.82;36.31;99681.38;5093182;28;20443;-68
2022/07/09 11:18:05;;;;;;;0.55;0.47;;;;;;;27.84;36.01;99681.75;5090036;28;20139;-68
2022/07/09 11:20:32;;;;;;;0.63;0.52;;;;;;;27.86;36.26;99682.13;5094911;28;20075;-68
2022/07/09 11:22:59;;;;;;;0.40;0.40;;;;;;;27.84;36.14;99678.94;5097449;28;20439;-68
2022/07/09 11:25:26;;;;;;;0.57;0.45;;;;;;;27.85;36.13;99672.91;5093971;28;20043;-68
2022/07/09 11:27:59;;;;;;;0.63;0.50;;;;;;;27.82;36.30;99656.88;5093916;28;20047;-68
2022/07/09 11:30:26;;;;;;;0.65;0.43;;;;;;;27.85;36.13;99672.91;5090941;28;20043;-68
2022/07/09 11:32:51;;;;;;;0.50;0.50;;;;;;;27.84;36.16;99664.91;5102355;28;20046;-68